Time;durP1;ratioP1;P1;durP2;ratioP2;P2;SDS_P1;SDS_P2;PMS_P1;PMS_P2;Temp;Humidity;BMP_temperature;BMP_pressure;BME280_temperature;BME280_humidity;BME280_pressure;Samples;Min_cycle;Max_cycle;Signal;HPM_P1;HPM_P2
2021/05/31 00:00:32;;;;;;;0.77;0.77;;;;;;;10.47;54.23;99594.34;5088336;28;43351;-79
2021/05/31 00:03:00;;;;;;;0.40;0.40;;;;;;;10.45;54.32;99594.41;5104851;28;42334;-80
2021/05/31 00:05:27;;;;;;;0.20;0.20;;;;;;;10.48;54.46;99601.34;5106060;28;39397;-78
2021/05/31 00:07:55;;;;;;;0.20;0.20;;;;;;;10.41;54.30;99604.28;5087773;28;41677;-79
2021/05/31 00:10:22;;;;;;;0.77;0.77;;;;;;;10.37;54.38;99601.91;5105354;28;42632;-80
2021/05/31 00:12:50;;;;;;;0.30;0.30;;;;;;;10.32;55.00;99599.47;5089172;28;41763;-79
2021/05/31 00:15:17;;;;;;;1.30;0.97;;;;;;;10.25;55.36;99584.81;5072337;28;38943;-81
2021/05/31 00:17:44;;;;;;;0.20;0.20;;;;;;;10.16;55.37;99577.28;5088085;28;42402;-81
2021/05/31 00:20:13;;;;;;;0.47;0.47;;;;;;;10.19;55.35;99590.41;5086935;28;42772;-79
2021/05/31 00:22:41;;;;;;;0.63;0.27;;;;;;;10.15;55.52;99591.44;5105408;28;42084;-83
2021/05/31 00:25:09;;;;;;;0.20;0.20;;;;;;;10.11;55.36;99584.63;5088692;28;40643;-80
2021/05/31 00:27:37;;;;;;;0.43;0.43;;;;;;;10.03;55.14;99576.16;5088220;28;41535;-78
2021/05/31 00:30:07;;;;;;;0.30;0.30;;;;;;;10.05;55.99;99587.53;5088981;28;42693;-82
2021/05/31 00:32:34;;;;;;;0.20;0.20;;;;;;;9.95;55.85;99573.91;5071078;28;42007;-81
2021/05/31 00:35:09;;;;;;;0.50;0.50;;;;;;;9.95;55.84;99589.78;5103935;28;39784;-79
2021/05/31 00:37:38;;;;;;;0.20;0.20;;;;;;;9.91;56.20;99584.69;5088823;28;41765;-80
2021/05/31 00:40:07;;;;;;;0.20;0.20;;;;;;;9.89;56.79;99583.94;5088116;28;44042;-81
2021/05/31 00:42:34;;;;;;;0.30;0.30;;;;;;;9.83;56.52;99576.28;5087538;28;42053;-80
2021/05/31 00:45:02;;;;;;;0.60;0.60;;;;;;;9.80;57.57;99568.50;5071899;28;39191;-79
2021/05/31 00:47:29;;;;;;;0.30;0.30;;;;;;;9.83;57.36;99568.34;5088044;28;40609;-82
2021/05/31 00:49:57;;;;;;;0.20;0.20;;;;;;;9.81;58.38;99575.50;5104466;28;42273;-79
2021/05/31 00:52:25;;;;;;;0.30;0.30;;;;;;;9.62;58.43;99544.66;5104127;28;42607;-78
2021/05/31 00:54:53;;;;;;;0.20;0.20;;;;;;;9.80;58.56;99579.94;5104057;28;40232;-79
2021/05/31 00:57:21;;;;;;;0.20;0.20;;;;;;;9.75;58.46;99565.22;5071157;28;40796;-82
2021/05/31 00:59:48;;;;;;;0.47;0.47;;;;;;;9.76;57.79;99575.75;5070826;28;41920;-81
2021/05/31 01:02:15;;;;;;;0.17;0.17;;;;;;;9.76;57.68;99572.22;5104742;28;42022;-82
2021/05/31 01:04:42;;;;;;;0.40;0.40;;;;;;;9.73;57.70;99579.38;5087842;28;40613;-81
2021/05/31 01:07:16;;;;;;;0.10;0.10;;;;;;;9.71;57.52;99575.94;5088063;28;41769;-80
2021/05/31 01:09:56;;;;;;;0.10;0.10;;;;;;;9.55;57.66;99553.78;5088646;28;42679;-77
2021/05/31 01:12:31;;;;;;;0.40;0.40;;;;;;;9.48;57.87;99541.81;5088223;28;41390;-80
2021/05/31 01:15:05;;;;;;;0.20;0.20;;;;;;;9.51;57.89;99554.03;5088801;28;40011;-80
2021/05/31 01:17:40;;;;;;;0.20;0.20;;;;;;;9.56;58.24;99560.78;5088278;28;40770;-82
2021/05/31 01:20:34;;;;;;;0.33;0.33;;;;;;;9.52;58.23;99564.50;5074118;28;42699;-82
2021/05/31 01:23:07;;;;;;;0.20;0.20;;;;;;;9.48;58.25;99562.94;5089408;28;41989;-79
2021/05/31 01:25:49;;;;;;;0.50;0.50;;;;;;;9.44;58.15;99564.00;5108536;28;40291;-80
2021/05/31 01:28:47;;;;;;;0.20;0.20;;;;;;;9.39;58.29;99568.69;5090035;28;42311;-83
2021/05/31 01:31:17;;;;;;;0.50;0.50;;;;;;;9.33;58.22;99567.16;5068809;28;41915;-81
2021/05/31 01:33:46;;;;;;;0.20;0.20;;;;;;;9.30;58.08;99574.34;5090802;28;42119;-78
2021/05/31 01:36:14;;;;;;;1.30;1.23;;;;;;;9.06;57.94;99543.78;5091009;28;40011;-79
2021/05/31 01:38:42;;;;;;;0.20;0.20;;;;;;;9.22;58.20;99565.94;5090183;28;42374;-81
2021/05/31 01:41:11;;;;;;;0.20;0.20;;;;;;;9.20;58.89;99563.34;5090462;28;42671;-81
2021/05/31 01:43:40;;;;;;;0.10;0.10;;;;;;;9.17;58.86;99562.63;5107225;28;42154;-78
2021/05/31 01:46:09;;;;;;;0.60;0.60;;;;;;;9.13;59.06;99561.06;5091937;28;40788;-83
2021/05/31 01:48:37;;;;;;;0.27;0.27;;;;;;;9.09;58.96;99559.50;5073684;28;41053;-82
2021/05/31 01:51:04;;;;;;;0.17;0.17;;;;;;;9.02;58.80;99552.78;5090848;28;42608;-80
2021/05/31 01:53:33;;;;;;;0.20;0.20;;;;;;;9.05;58.71;99563.19;5090394;28;41160;-81
2021/05/31 01:56:02;;;;;;;0.20;0.20;;;;;;;8.90;58.75;99538.34;5090866;28;40377;-80
2021/05/31 01:58:29;;;;;;;0.27;0.27;;;;;;;8.98;58.67;99560.84;5089989;28;41632;-78
2021/05/31 02:00:57;;;;;;;0.20;0.20;;;;;;;8.93;58.97;99560.16;5091027;28;41721;-82
2021/05/31 02:03:26;;;;;;;0.20;0.20;;;;;;;8.87;58.93;99555.19;5091017;28;42028;-78
2021/05/31 02:05:53;;;;;;;0.30;0.30;;;;;;;8.88;59.05;99553.41;5090383;28;40221;-81
2021/05/31 02:08:20;;;;;;;0.20;0.20;;;;;;;8.78;58.80;99550.28;5091098;28;42337;-82
2021/05/31 02:10:48;;;;;;;0.43;0.43;;;;;;;8.66;59.04;99537.63;5090079;28;42706;-78
2021/05/31 02:13:16;;;;;;;0.23;0.23;;;;;;;8.74;58.88;99561.06;5090832;28;42690;-82
2021/05/31 02:15:56;;;;;;;0.20;0.20;;;;;;;8.69;58.96;99550.69;5107896;28;40768;-82
2021/05/31 02:18:26;;;;;;;0.20;0.20;;;;;;;8.65;58.90;99554.41;5107149;28;40815;-80
2021/05/31 02:20:57;;;;;;;0.20;0.20;;;;;;;8.61;58.93;99555.47;5090868;28;41723;-81
2021/05/31 02:23:26;;;;;;;0.40;0.40;;;;;;;8.57;59.35;99551.22;5073425;28;40484;-79
2021/05/31 02:25:53;;;;;;;0.20;0.20;;;;;;;8.39;59.19;99523.00;5090667;28;39126;-81
2021/05/31 02:28:21;;;;;;;0.20;0.20;;;;;;;8.49;59.39;99553.34;5089320;28;41510;-81
2021/05/31 02:30:48;;;;;;;0.20;0.20;;;;;;;8.47;59.29;99555.19;5089086;28;42989;-78
2021/05/31 02:33:15;;;;;;;0.27;0.27;;;;;;;8.42;59.33;99551.88;5090356;28;41231;-79
2021/05/31 02:35:44;;;;;;;0.33;0.33;;;;;;;8.39;59.48;99546.75;5091275;28;40354;-79
2021/05/31 02:38:11;;;;;;;0.30;0.30;;;;;;;8.28;59.74;99537.44;5090117;28;40415;-82
2021/05/31 02:40:38;;;;;;;0.30;0.30;;;;;;;8.32;59.79;99556.69;5106147;28;43442;-80
2021/05/31 02:43:09;;;;;;;0.40;0.40;;;;;;;8.29;59.64;99556.78;5105250;28;42055;-78
2021/05/31 02:45:37;;;;;;;0.50;0.50;;;;;;;8.25;59.82;99556.06;5070069;28;39166;-80
2021/05/31 02:48:05;;;;;;;0.20;0.20;;;;;;;8.22;59.82;99561.47;5085965;28;41119;-81
2021/05/31 02:50:33;;;;;;;0.37;0.37;;;;;;;8.19;59.79;99561.59;5091109;28;42482;-81
2021/05/31 02:53:04;;;;;;;0.20;0.20;;;;;;;8.17;59.77;99555.50;5088465;28;44867;-81
2021/05/31 02:55:32;;;;;;;0.53;0.53;;;;;;;8.14;59.73;99546.88;5091156;28;41600;-81
2021/05/31 02:58:00;;;;;;;0.20;0.20;;;;;;;8.11;60.02;99550.50;5117803;27;41436;-81
2021/05/31 03:00:28;;;;;;;0.27;0.27;;;;;;;8.08;60.16;99555.91;5127505;27;42729;-79
2021/05/31 03:02:56;;;;;;;0.57;0.57;;;;;;;8.01;60.39;99546.53;5110001;28;41269;-82
2021/05/31 03:05:27;;;;;;;1.33;1.13;;;;;;;8.03;60.24;99554.38;5110903;28;39196;-78
2021/05/31 03:07:55;;;;;;;0.57;0.57;;;;;;;8.00;60.27;99550.09;5091059;28;41623;-79
2021/05/31 03:10:25;;;;;;;0.20;0.20;;;;;;;7.99;60.26;99553.66;5090604;28;43782;-81
2021/05/31 03:12:52;;;;;;;0.20;0.20;;;;;;;7.98;60.53;99551.94;5090826;28;42895;-81
2021/05/31 03:15:20;;;;;;;1.60;0.40;;;;;;;7.97;60.35;99547.56;5089698;28;39916;-78
2021/05/31 03:17:49;;;;;;;0.27;0.27;;;;;;;7.97;62.30;99542.28;5090208;28;40923;-83
2021/05/31 03:20:18;;;;;;;0.57;0.50;;;;;;;7.98;62.37;99545.78;5106130;28;43462;-80
2021/05/31 03:22:45;;;;;;;0.20;0.20;;;;;;;7.99;62.80;99543.09;5090988;28;42511;-80
2021/05/31 03:25:13;;;;;;;0.40;0.40;;;;;;;8.00;62.67;99539.53;5089440;28;39957;-81
2021/05/31 03:27:42;;;;;;;0.50;0.50;;;;;;;8.02;62.62;99540.34;5090583;28;41608;-78
2021/05/31 03:30:11;;;;;;;0.40;0.40;;;;;;;8.03;62.33;99549.97;5089235;28;41721;-82
2021/05/31 03:32:40;;;;;;;1.87;1.77;;;;;;;8.01;62.04;99543.91;5089374;28;41443;-80
2021/05/31 03:35:09;;;;;;;0.20;0.20;;;;;;;7.94;61.94;99534.50;5088859;28;39718;-80
2021/05/31 03:37:37;;;;;;;0.20;0.20;;;;;;;8.07;61.80;99555.97;5089918;28;40593;-79
2021/05/31 03:40:06;;;;;;;0.43;0.43;;;;;;;8.07;61.78;99556.81;5099075;28;43241;-78
2021/05/31 03:42:35;;;;;;;0.50;0.50;;;;;;;8.08;61.70;99550.63;5097215;28;41328;-79
2021/05/31 03:45:06;;;;;;;1.40;1.30;;;;;;;8.10;61.78;99547.94;5098766;28;41112;-80
2021/05/31 03:47:33;;;;;;;0.40;0.40;;;;;;;8.13;61.73;99553.09;5097913;28;42265;-79
2021/05/31 03:50:00;;;;;;;0.20;0.20;;;;;;;8.15;61.67;99560.03;5098534;28;42450;-80
2021/05/31 03:52:28;;;;;;;0.30;0.30;;;;;;;8.18;61.81;99562.50;5097768;28;42719;-79
2021/05/31 03:54:55;;;;;;;0.27;0.27;;;;;;;8.21;61.51;99551.84;5089270;28;39132;-82
2021/05/31 03:57:22;;;;;;;0.33;0.33;;;;;;;8.27;61.90;99554.22;5089315;28;41667;-80
2021/05/31 03:59:51;;;;;;;0.20;0.20;;;;;;;8.33;61.78;99552.28;5088040;28;42399;-81
2021/05/31 04:02:20;;;;;;;0.60;0.60;;;;;;;8.39;61.83;99554.66;5088090;28;41514;-81
2021/05/31 04:04:52;;;;;;;0.20;0.20;;;;;;;8.40;62.07;99543.19;5089869;28;38724;-81
2021/05/31 04:12:51;;;;;;;0.40;0.40;;;;;;;8.72;62.45;99547.91;5106087;28;42906;-81
2021/05/31 04:15:18;;;;;;;0.20;0.20;;;;;;;8.84;62.02;99551.81;5105525;28;40374;-81
2021/05/31 04:17:48;;;;;;;0.67;0.67;;;;;;;8.90;61.89;99544.44;5089756;28;41122;-79
2021/05/31 04:20:15;;;;;;;0.97;0.97;;;;;;;9.01;61.76;99551.91;5104722;28;42811;-80
2021/05/31 04:22:43;;;;;;;0.33;0.33;;;;;;;8.86;61.42;99520.91;5089903;28;42141;-82
2021/05/31 04:25:11;;;;;;;0.80;0.80;;;;;;;9.19;61.31;99550.22;5071076;28;39251;-81
2021/05/31 04:27:38;;;;;;;0.43;0.43;;;;;;;9.29;61.99;99552.34;5071574;28;40649;-81
2021/05/31 04:30:07;;;;;;;0.23;0.23;;;;;;;9.28;62.39;99540.06;5105202;28;43311;-81
2021/05/31 04:32:34;;;;;;;0.20;0.20;;;;;;;9.45;63.41;99547.22;5087790;28;41056;-82
2021/05/31 04:35:03;;;;;;;0.30;0.30;;;;;;;9.54;63.68;99545.91;5088760;28;41442;-79
2021/05/31 04:37:33;;;;;;;0.30;0.30;;;;;;;9.65;63.31;99562.13;5088288;28;41663;-80
2021/05/31 04:40:02;;;;;;;0.30;0.30;;;;;;;9.71;62.81;99556.56;5089427;28;43443;-79
2021/05/31 04:42:29;;;;;;;0.73;0.73;;;;;;;9.70;62.60;99542.50;5087838;28;41235;-81
2021/05/31 04:44:56;;;;;;;0.20;0.20;;;;;;;9.94;62.41;99571.34;5089023;28;38592;-80
2021/05/31 04:47:23;;;;;;;0.57;0.57;;;;;;;10.03;62.34;99565.59;5105291;28;41391;-80
2021/05/31 04:49:50;;;;;;;0.47;0.47;;;;;;;10.14;61.77;99568.56;5088670;28;42786;-79
2021/05/31 04:52:20;;;;;;;0.40;0.40;;;;;;;10.13;61.97;99553.63;5104688;28;42775;-79
2021/05/31 04:54:48;;;;;;;0.30;0.30;;;;;;;10.33;61.74;99569.41;5070317;28;39917;-79
2021/05/31 04:57:15;;;;;;;0.47;0.47;;;;;;;10.47;61.18;99570.50;5088695;28;41570;-79
2021/05/31 04:59:42;;;;;;;0.60;0.60;;;;;;;10.58;61.19;99562.88;5088973;28;43165;-81
2021/05/31 05:02:09;;;;;;;0.23;0.23;;;;;;;10.69;61.38;99571.97;5104746;28;42270;-80
2021/05/31 05:04:36;;;;;;;0.30;0.30;;;;;;;10.75;61.36;99565.53;5088398;28;39268;-81
2021/05/31 05:07:04;;;;;;;0.40;0.40;;;;;;;10.81;60.98;99557.22;5088620;28;42352;-80
2021/05/31 05:09:32;;;;;;;0.30;0.30;;;;;;;10.99;61.09;99574.84;5087472;28;42753;-80
2021/05/31 05:11:59;;;;;;;0.50;0.50;;;;;;;11.07;60.56;99580.56;5070864;28;40864;-82
2021/05/31 05:14:26;;;;;;;0.53;0.53;;;;;;;11.15;60.37;99575.72;5089195;28;38528;-79
2021/05/31 05:16:53;;;;;;;0.17;0.17;;;;;;;11.24;60.35;99568.22;5089409;28;41396;-81
2021/05/31 05:19:21;;;;;;;1.03;0.50;;;;;;;11.33;60.30;99568.56;5071343;28;42801;-81
2021/05/31 05:21:48;;;;;;;0.87;0.87;;;;;;;11.43;60.15;99568.94;5089207;28;42799;-80
2021/05/31 05:24:15;;;;;;;0.47;0.47;;;;;;;11.36;60.73;99541.03;5088114;28;39647;-81
2021/05/31 05:26:44;;;;;;;0.50;0.50;;;;;;;11.50;60.35;99549.06;5071647;28;40838;-82
2021/05/31 05:29:11;;;;;;;1.70;1.60;;;;;;;11.70;59.92;99567.41;5087628;28;41475;-79
2021/05/31 05:31:39;;;;;;;0.20;0.20;;;;;;;11.80;60.08;99558.03;5087366;28;42863;-82
2021/05/31 05:34:07;;;;;;;0.20;0.20;;;;;;;11.81;60.16;99548.25;5086848;28;39869;-81
2021/05/31 05:36:43;;;;;;;0.40;0.40;;;;;;;12.03;59.76;99563.81;5088234;28;42300;-81
2021/05/31 05:42:15;;;;;;;0.10;0.10;;;;;;;12.30;59.34;99564.03;5103932;28;41906;-79
2021/05/31 05:45:10;;;;;;;0.20;0.20;;;;;;;12.48;58.52;99577.09;5086644;28;39740;-83
2021/05/31 05:47:44;;;;;;;0.93;0.93;;;;;;;12.70;57.97;99581.16;5070634;28;41704;-82
2021/05/31 05:50:14;;;;;;;1.33;1.33;;;;;;;12.84;57.76;99579.38;5088976;28;43316;-79
2021/05/31 05:52:42;;;;;;;0.43;0.43;;;;;;;12.98;57.53;99570.56;5086633;28;41078;-81
2021/05/31 05:55:11;;;;;;;1.17;1.17;;;;;;;13.19;57.35;99573.75;5088044;28;40172;-82
2021/05/31 05:57:40;;;;;;;0.10;0.10;;;;;;;13.44;56.14;99583.72;5087917;28;42398;-80
2021/05/31 06:00:10;;;;;;;0.10;0.10;;;;;;;13.66;55.95;99584.06;5086116;28;43260;-79
2021/05/31 06:02:40;;;;;;;0.37;0.37;;;;;;;13.85;55.46;99587.25;5068912;28;42035;-83
2021/05/31 06:05:08;;;;;;;0.27;0.27;;;;;;;13.97;54.90;99589.13;5050700;28;38640;-81
2021/05/31 06:07:36;;;;;;;0.77;0.77;;;;;;;14.13;54.47;99598.78;5070586;28;40682;-83
2021/05/31 06:10:04;;;;;;;0.27;0.27;;;;;;;14.26;54.54;99597.03;5070954;28;42672;-78
2021/05/31 06:12:31;;;;;;;0.30;0.30;;;;;;;14.27;54.33;99574.75;5086973;28;42220;-80
2021/05/31 06:15:01;;;;;;;0.67;0.67;;;;;;;14.53;54.46;99592.56;5067187;28;40684;-81
2021/05/31 06:17:28;;;;;;;0.63;0.53;;;;;;;14.74;54.02;99598.25;5104711;28;40953;-80
2021/05/31 06:20:00;;;;;;;1.70;1.13;;;;;;;15.03;53.52;99596.28;5083910;28;42237;-79
2021/05/31 06:22:29;;;;;;;2.80;0.50;;;;;;;15.29;53.18;99598.00;5103786;28;42175;-78
2021/05/31 06:24:56;;;;;;;0.50;0.50;;;;;;;15.45;52.94;99603.94;5103723;28;39922;-80
2021/05/31 06:27:23;;;;;;;0.10;0.10;;;;;;;15.58;52.86;99597.81;5069546;28;40662;-78
2021/05/31 06:29:50;;;;;;;0.83;0.83;;;;;;;15.80;52.26;99597.97;5087127;28;42668;-77
2021/05/31 06:32:19;;;;;;;0.40;0.40;;;;;;;15.87;51.86;99603.69;5087804;28;42153;-78
2021/05/31 06:34:46;;;;;;;0.40;0.40;;;;;;;16.03;51.47;99602.47;5070418;28;39146;-84
2021/05/31 06:37:13;;;;;;;0.60;0.60;;;;;;;16.09;50.77;99590.47;5079271;28;41757;-83
2021/05/31 06:39:40;;;;;;;0.50;0.50;;;;;;;16.27;50.72;99590.94;5070961;28;41620;-85
2021/05/31 06:42:08;;;;;;;0.23;0.23;;;;;;;16.44;50.14;99598.59;5085587;28;42057;-86
2021/05/31 06:44:35;;;;;;;0.60;0.60;;;;;;;16.59;50.08;99589.38;5086616;28;38980;-84
2021/05/31 06:47:03;;;;;;;0.10;0.10;;;;;;;16.71;50.23;99585.81;5086377;28;42189;-84
2021/05/31 06:49:31;;;;;;;1.33;1.23;;;;;;;16.98;49.26;99611.44;5087909;28;41730;-84
2021/05/31 06:51:59;;;;;;;0.70;0.70;;;;;;;17.17;48.78;99609.91;5098735;28;42146;-83
2021/05/31 06:54:26;;;;;;;0.83;0.63;;;;;;;17.28;45.18;99632.31;5089057;28;39995;-83
2021/05/31 06:56:53;;;;;;;0.33;0.33;;;;;;;17.40;46.00;99597.41;5087071;28;41614;-88
2021/05/31 06:59:20;;;;;;;0.27;0.27;;;;;;;17.74;45.80;99618.84;5083073;28;43270;-82
2021/05/31 07:01:48;;;;;;;0.83;0.83;;;;;;;17.92;45.05;99606.66;5084867;28;42219;-80
2021/05/31 07:04:17;;;;;;;0.30;0.30;;;;;;;18.30;45.25;99598.16;5086878;28;39968;-86
2021/05/31 07:06:47;;;;;;;0.50;0.50;;;;;;;18.70;43.94;99629.75;5069049;28;41585;-79
2021/05/31 07:09:15;;;;;;;0.30;0.30;;;;;;;18.80;43.13;99618.09;5102297;28;42553;-83
2021/05/31 07:11:43;;;;;;;0.40;0.40;;;;;;;18.91;41.88;99619.91;5070860;28;41174;-84
2021/05/31 07:14:16;;;;;;;0.20;0.20;;;;;;;19.08;42.32;99623.81;5068513;28;40248;-80
2021/05/31 07:16:44;;;;;;;0.20;0.20;;;;;;;19.11;42.94;99607.47;5085159;28;41428;-82
2021/05/31 07:19:11;;;;;;;0.40;0.40;;;;;;;19.25;42.08;99616.03;5085180;28;43049;-77
2021/05/31 07:21:39;;;;;;;0.30;0.30;;;;;;;19.54;40.63;99624.28;5067867;28;42553;-84
2021/05/31 07:24:10;;;;;;;0.30;0.30;;;;;;;19.91;39.24;99634.47;5069219;28;39990;-85
2021/05/31 07:26:37;;;;;;;2.10;0.57;;;;;;;20.36;36.86;99641.16;5086667;28;41722;-86
2021/05/31 07:29:05;;;;;;;1.53;0.97;;;;;;;21.34;34.45;99648.28;5080741;28;41798;-80
2021/05/31 07:31:32;;;;;;;0.20;0.20;;;;;;;22.86;32.26;99676.56;5086461;28;41179;-79
2021/05/31 07:34:00;;;;;;;0.20;0.20;;;;;;;24.14;31.45;99663.28;5086343;28;39394;-88
2021/05/31 07:36:27;;;;;;;0.50;0.50;;;;;;;25.06;28.73;99690.34;5084255;28;41956;-82
2021/05/31 07:38:54;;;;;;;0.27;0.27;;;;;;;25.73;27.94;99693.72;5085614;28;42631;-80
2021/05/31 07:41:23;;;;;;;0.47;0.47;;;;;;;25.92;28.21;99685.22;5085683;28;41801;-86
2021/05/31 07:43:51;;;;;;;0.20;0.20;;;;;;;25.84;27.49;99692.53;5084519;28;38858;-86
2021/05/31 07:46:18;;;;;;;2.40;2.17;;;;;;;25.69;27.87;99674.25;5085001;28;41894;-86
2021/05/31 07:48:46;;;;;;;0.50;0.50;;;;;;;26.89;28.48;99674.94;5086118;28;42755;-82
2021/05/31 07:51:17;;;;;;;0.47;0.47;;;;;;;27.80;26.40;99672.16;5084031;28;43852;-85
2021/05/31 07:53:46;;;;;;;0.10;0.10;;;;;;;29.53;24.58;99699.44;5088612;28;40515;-86
2021/05/31 07:56:14;;;;;;;0.23;0.23;;;;;;;30.73;22.87;99703.78;5088141;28;40802;-81
2021/05/31 07:58:45;;;;;;;0.10;0.10;;;;;;;31.11;21.61;99715.06;5089691;28;41487;-81
2021/05/31 08:01:13;;;;;;;0.63;0.63;;;;;;;31.11;21.22;99710.44;5105255;28;41933;-82
2021/05/31 08:03:41;;;;;;;0.57;0.57;;;;;;;30.61;21.54;99693.44;5088258;28;40432;-89
2021/05/31 08:06:09;;;;;;;0.20;0.20;;;;;;;29.99;23.18;99686.16;5088945;28;40685;-90
2021/05/31 08:08:36;;;;;;;0.40;0.40;;;;;;;29.50;23.25;99677.16;5072871;28;42524;-89
2021/05/31 08:11:04;;;;;;;0.90;0.90;;;;;;;29.73;23.92;99679.63;5071646;28;41515;-85
2021/05/31 08:13:31;;;;;;;0.60;0.60;;;;;;;30.16;23.20;99662.09;5072167;28;39081;-83
2021/05/31 08:16:00;;;;;;;0.53;0.53;;;;;;;31.46;21.79;99686.47;5088475;28;40771;-88
2021/05/31 08:18:27;;;;;;;0.30;0.30;;;;;;;32.85;20.94;99686.19;5072643;28;41733;-83
2021/05/31 08:20:55;;;;;;;0.43;0.37;;;;;;;33.94;20.10;99680.31;5088483;28;41684;-84
2021/05/31 08:23:22;;;;;;;0.30;0.30;;;;;;;34.28;18.40;99699.00;5070901;28;39015;-82
2021/05/31 08:25:49;;;;;;;0.20;0.20;;;;;;;33.93;19.46;99667.63;5071889;28;40779;-86
2021/05/31 08:28:17;;;;;;;2.80;2.60;;;;;;;33.44;19.14;99680.31;5071233;28;42170;-87
2021/05/31 08:30:44;;;;;;;1.57;1.27;;;;;;;32.68;19.29;99667.44;5104921;28;42456;-89
2021/05/31 08:33:14;;;;;;;0.80;0.80;;;;;;;32.62;21.46;99656.53;5070835;28;38821;-82
2021/05/31 08:35:43;;;;;;;0.90;0.83;;;;;;;32.56;21.18;99673.84;5089201;28;41119;-83
2021/05/31 08:38:10;;;;;;;0.30;0.30;;;;;;;32.47;20.50;99676.00;5087735;28;43430;-82
2021/05/31 08:40:38;;;;;;;0.60;0.60;;;;;;;32.74;20.31;99674.00;5087356;28;41305;-85
2021/05/31 08:43:05;;;;;;;0.63;0.63;;;;;;;33.42;19.93;99680.53;5088174;28;39804;-82
2021/05/31 08:45:36;;;;;;;0.47;0.47;;;;;;;33.92;18.69;99682.44;5088455;28;41162;-87
2021/05/31 08:48:05;;;;;;;0.47;0.47;;;;;;;34.98;17.73;99687.56;5104679;28;42430;-82
2021/05/31 08:50:34;;;;;;;0.40;0.40;;;;;;;36.38;17.48;99688.56;5088186;28;41273;-82
2021/05/31 08:53:02;;;;;;;0.77;0.77;;;;;;;37.71;16.18;99690.03;5087790;28;39171;-83
2021/05/31 08:55:30;;;;;;;0.70;0.57;;;;;;;38.24;15.49;99696.91;5103446;28;42246;-84
2021/05/31 08:57:59;;;;;;;1.53;0.70;;;;;;;38.26;15.07;99694.72;5089306;28;20242;-85
2021/05/31 09:00:28;;;;;;;0.60;0.60;;;;;;;38.37;15.81;99677.16;5089176;28;42398;-80
2021/05/31 09:02:59;;;;;;;0.30;0.30;;;;;;;38.73;14.33;99701.44;5104229;28;39525;-82
2021/05/31 09:05:34;;;;;;;0.60;0.60;;;;;;;38.37;13.79;99696.53;5071069;28;41785;-80
2021/05/31 09:08:03;;;;;;;0.30;0.30;;;;;;;37.60;15.68;99688.13;5087450;28;42962;-87
2021/05/31 09:10:35;;;;;;;0.40;0.40;;;;;;;37.09;15.26;99672.59;5088757;28;43039;-85
2021/05/31 09:13:03;;;;;;;0.63;0.63;;;;;;;36.80;14.38;99696.63;5087736;28;40020;-86
2021/05/31 09:15:30;;;;;;;0.30;0.30;;;;;;;36.84;15.27;99657.25;5088397;28;41725;-85
2021/05/31 09:17:58;;;;;;;0.50;0.50;;;;;;;37.42;15.14;99669.91;5071178;28;43450;-82
2021/05/31 09:20:26;;;;;;;1.77;0.93;;;;;;;38.26;14.64;99664.28;5089017;28;42234;-86
2021/05/31 09:22:56;;;;;;;0.30;0.30;;;;;;;38.84;13.79;99668.31;5071828;28;39069;-84
2021/05/31 09:25:30;;;;;;;0.50;0.50;;;;;;;39.05;13.27;99675.81;5087854;28;42008;-79
2021/05/31 09:27:59;;;;;;;0.30;0.30;;;;;;;39.16;13.85;99660.94;5103798;28;42816;-86
2021/05/31 09:30:36;;;;;;;0.33;0.33;;;;;;;39.92;12.76;99686.56;5070391;28;41180;-83
2021/05/31 09:33:07;;;;;;;0.30;0.30;;;;;;;40.09;12.32;99656.69;5104313;28;40781;-82
2021/05/31 09:35:34;;;;;;;0.77;0.77;;;;;;;40.55;12.42;99673.59;5087460;28;42252;-89
2021/05/31 09:38:03;;;;;;;0.95;0.95;;;;;;;41.39;12.54;99670.47;5071138;28;41700;-94
2021/05/31 09:40:31;;;;;;;0.40;0.40;;;;;;;41.72;11.72;99671.03;5073376;28;41068;-85
2021/05/31 09:43:00;;;;;;;0.77;0.77;;;;;;;41.85;11.17;99676.00;5089618;28;39817;-86
2021/05/31 09:45:29;;;;;;;0.30;0.30;;;;;;;41.42;11.85;99664.31;5090602;28;42392;-83
2021/05/31 09:47:59;;;;;;;0.60;0.60;;;;;;;40.86;12.22;99657.88;5090780;28;42757;-84
2021/05/31 09:50:29;;;;;;;0.40;0.40;;;;;;;40.47;12.26;99654.66;5090960;28;40840;-86
2021/05/31 09:53:06;;;;;;;0.40;0.40;;;;;;;40.72;12.16;99646.44;5106852;28;39790;-81
2021/05/31 09:55:37;;;;;;;0.40;0.40;;;;;;;40.70;12.68;99648.63;5090813;28;41675;-81
2021/05/31 09:58:12;;;;;;;0.50;0.40;;;;;;;40.77;12.26;99643.69;5089449;28;42843;-79
2021/05/31 10:00:41;;;;;;;0.50;0.50;;;;;;;40.66;12.50;99628.06;5090188;28;42046;-84
2021/05/31 10:03:32;;;;;;;0.37;0.37;;;;;;;39.96;13.37;99631.34;5089511;28;40939;-83
2021/05/31 10:06:07;;;;;;;0.40;0.40;;;;;;;38.33;14.72;99613.19;5071142;28;41804;-83
2021/05/31 10:08:42;;;;;;;0.67;0.60;;;;;;;36.73;15.25;99613.94;5087023;28;43400;-85
2021/05/31 10:11:11;;;;;;;1.27;0.50;;;;;;;35.49;16.17;99618.09;5083208;28;42117;-83
2021/05/31 10:13:41;;;;;;;0.50;0.50;;;;;;;34.63;17.37;99602.03;5073895;28;38938;-82
2021/05/31 10:16:10;;;;;;;0.80;0.80;;;;;;;33.80;16.90;99608.97;5089140;28;41556;-81
2021/05/31 10:18:41;;;;;;;0.40;0.40;;;;;;;33.84;17.70;99599.22;5090065;28;42968;-82
2021/05/31 10:21:09;;;;;;;0.50;0.50;;;;;;;33.42;18.14;99545.13;5106348;28;41481;-82
2021/05/31 10:23:37;;;;;;;0.40;0.40;;;;;;;33.36;16.98;99595.47;5091098;28;42003;-80
2021/05/31 10:26:09;;;;;;;1.00;0.90;;;;;;;32.63;17.46;99589.63;5090041;28;40712;-85
2021/05/31 10:28:40;;;;;;;0.50;0.50;;;;;;;32.19;17.75;99594.06;5089756;28;42883;-84
2021/05/31 10:31:08;;;;;;;2.90;2.20;;;;;;;31.59;18.81;99581.56;5106540;28;43067;-84
2021/05/31 10:33:38;;;;;;;1.00;1.00;;;;;;;31.16;18.79;99581.22;5090926;28;39908;-84
2021/05/31 10:36:12;;;;;;;0.50;0.50;;;;;;;31.04;18.97;99562.63;5106640;28;41571;-81
2021/05/31 10:38:41;;;;;;;0.57;0.57;;;;;;;31.24;18.51;99570.88;5089990;28;42859;-86
2021/05/31 10:41:13;;;;;;;0.30;0.30;;;;;;;31.15;18.81;99557.63;5089602;28;42407;-89
2021/05/31 10:43:49;;;;;;;0.30;0.30;;;;;;;30.93;18.53;99576.94;5073906;28;39314;-87
2021/05/31 10:46:19;;;;;;;0.40;0.40;;;;;;;30.60;19.03;99574.16;5072821;28;41660;-86
2021/05/31 10:48:50;;;;;;;0.50;0.50;;;;;;;30.28;21.20;99551.16;5090302;28;42817;-87
2021/05/31 10:51:20;;;;;;;0.60;0.33;;;;;;;30.06;20.00;99557.78;5089356;28;41337;-84
2021/05/31 10:53:49;;;;;;;0.20;0.20;;;;;;;29.88;22.00;99539.19;5090395;28;39041;-85
2021/05/31 10:56:25;;;;;;;0.50;0.50;;;;;;;29.42;20.69;99528.03;5089262;28;41780;-85
2021/05/31 10:58:54;;;;;;;0.30;0.30;;;;;;;29.34;20.84;99530.88;5073713;28;43304;-86
2021/05/31 11:01:34;;;;;;;0.40;0.40;;;;;;;29.15;21.81;99539.78;5090036;28;41736;-84
2021/05/31 11:04:03;;;;;;;0.40;0.40;;;;;;;29.13;22.38;99544.59;5090509;28;39087;-84
2021/05/31 11:06:35;;;;;;;0.23;0.23;;;;;;;28.90;22.97;99537.50;5074058;28;40768;-85
2021/05/31 11:09:08;;;;;;;0.30;0.30;;;;;;;28.75;21.93;99542.16;5088383;28;42814;-86
2021/05/31 11:11:37;;;;;;;0.50;0.50;;;;;;;28.49;22.06;99520.94;5089505;28;42777;-87
2021/05/31 11:14:04;;;;;;;0.30;0.30;;;;;;;28.32;22.23;99532.25;5088222;28;40907;-83
2021/05/31 11:16:34;;;;;;;2.37;1.13;;;;;;;27.95;23.17;99496.00;5073408;28;41680;-86
2021/05/31 11:19:04;;;;;;;0.30;0.30;;;;;;;28.16;23.56;99534.19;5089721;28;42612;-85
2021/05/31 11:21:35;;;;;;;2.03;1.47;;;;;;;28.12;22.70;99530.16;5089654;28;43297;-86
2021/05/31 11:24:04;;;;;;;0.60;0.40;;;;;;;27.96;22.50;99529.50;5089865;28;38853;-82
2021/05/31 11:26:36;;;;;;;0.30;0.30;;;;;;;27.83;23.26;99514.72;5089270;28;40608;-80
2021/05/31 11:29:05;;;;;;;0.30;0.30;;;;;;;27.89;25.83;99494.91;5089115;28;43104;-86
2021/05/31 11:31:34;;;;;;;0.70;0.43;;;;;;;27.99;24.82;99500.03;5071998;28;41192;-81
2021/05/31 11:34:01;;;;;;;0.30;0.30;;;;;;;28.22;24.55;99508.06;5106620;28;39587;-82
2021/05/31 11:36:31;;;;;;;0.30;0.30;;;;;;;28.51;26.25;99499.78;5088686;28;40635;-84
2021/05/31 11:39:00;;;;;;;0.40;0.30;;;;;;;29.03;26.94;99484.09;5088839;28;41807;-80
2021/05/31 11:41:35;;;;;;;0.40;0.40;;;;;;;29.16;23.15;99486.91;5090578;28;43198;-86
2021/05/31 11:44:02;;;;;;;0.30;0.30;;;;;;;29.55;23.20;99500.78;5090037;28;39128;-86
2021/05/31 11:46:30;;;;;;;0.30;0.30;;;;;;;29.98;23.08;99508.78;5089461;28;40759;-86
2021/05/31 11:49:06;;;;;;;0.40;0.40;;;;;;;31.17;22.45;99484.34;5088617;28;41891;-86
2021/05/31 11:51:33;;;;;;;0.37;0.37;;;;;;;32.68;19.23;99515.72;5089070;28;41585;-85
2021/05/31 11:54:00;;;;;;;0.50;0.50;;;;;;;33.14;18.51;99526.34;5072179;28;39867;-79